createdAt,value
2018-06-05T00:01:18.217Z,28.09
2018-06-05T00:03:50.055Z,28.21
2018-06-05T00:06:43.229Z,28.20
2018-06-05T00:09:14.909Z,28.20
2018-06-05T00:11:49.069Z,28.16
2018-06-05T00:14:19.547Z,28.20
2018-06-05T00:16:50.518Z,28.13
2018-06-05T00:19:23.298Z,28.17
2018-06-05T00:21:53.984Z,28.19
2018-06-05T00:24:24.573Z,28.11
2018-06-05T00:26:56.543Z,28.04
2018-06-05T00:29:27.633Z,28.10
2018-06-05T00:31:58.162Z,28.02
2018-06-05T00:34:29.510Z,28.06
2018-06-05T00:37:00.024Z,27.93
2018-06-05T00:39:32.290Z,27.96
2018-06-05T00:42:03.576Z,27.98
2018-06-05T00:44:35.669Z,27.95
2018-06-05T00:47:06.966Z,27.83
2018-06-05T00:49:39.512Z,27.79
2018-06-05T00:52:10.710Z,27.77
2018-06-05T00:54:45.763Z,27.66
2018-06-05T00:57:18.612Z,27.65
2018-06-05T00:59:50.019Z,27.56
2018-06-05T01:02:21.472Z,27.60
2018-06-05T01:04:53.505Z,27.62
2018-06-05T01:07:26.293Z,27.64
2018-06-05T01:09:59.697Z,27.54
2018-06-05T01:12:32.985Z,27.58
2018-06-05T01:15:04.816Z,27.54
2018-06-05T01:17:35.380Z,27.44
2018-06-05T01:20:09.445Z,27.39
2018-06-05T01:22:42.574Z,27.41
2018-06-05T01:25:13.438Z,27.35
2018-06-05T01:27:44.283Z,27.30
2018-06-05T01:30:15.460Z,27.21
2018-06-05T01:32:48.095Z,27.30
2018-06-05T01:35:19.906Z,27.27
2018-06-05T01:37:50.671Z,27.25
2018-06-05T01:40:23.857Z,27.29
2018-06-05T01:42:55.191Z,27.22
2018-06-05T01:45:28.839Z,27.23
2018-06-05T01:47:59.374Z,27.14
2018-06-05T01:50:33.672Z,27.14
2018-06-05T01:53:05.302Z,27.13
2018-06-05T01:55:37.652Z,27.08
2018-06-05T01:58:08.304Z,27.09
2018-06-05T02:00:41.093Z,27.14
2018-06-05T02:03:13.246Z,27.04
2018-06-05T02:05:44.669Z,27.10
2018-06-05T02:08:16.685Z,27.06
2018-06-05T02:10:51.878Z,27.02
2018-06-05T02:13:23.573Z,27.03
2018-06-05T02:15:54.110Z,26.92
2018-06-05T02:18:24.652Z,26.96
2018-06-05T02:20:55.318Z,26.96
2018-06-05T02:23:25.925Z,26.95
2018-06-05T02:25:58.937Z,26.93
2018-06-05T02:28:30.446Z,26.97
2018-06-05T02:31:04.710Z,26.86
2018-06-05T02:33:40.663Z,27.03
2018-06-05T02:36:14.985Z,26.96
2018-06-05T02:38:48.415Z,26.96
2018-06-05T02:41:21.434Z,27.01
2018-06-05T02:43:54.177Z,26.90
2018-06-05T02:46:27.110Z,26.86
2018-06-05T02:49:01.504Z,26.87
2018-06-05T02:51:34.492Z,26.93
2018-06-05T02:54:07.028Z,26.94
2018-06-05T02:56:37.740Z,26.83
2018-06-05T02:59:08.300Z,26.86
2018-06-05T03:01:39.829Z,26.81
2018-06-05T03:04:10.361Z,26.83
2018-06-05T03:06:41.856Z,26.85
2018-06-05T03:11:41.147Z,26.84
2018-06-05T03:14:13.555Z,26.78
2018-06-05T03:16:44.046Z,26.79
2018-06-05T03:19:15.186Z,26.79
2018-06-05T03:21:45.670Z,26.87
2018-06-05T03:24:15.969Z,26.80
2018-06-05T03:26:47.034Z,26.79
2018-06-05T03:29:17.589Z,26.76
2018-06-05T03:31:48.122Z,26.86
2018-06-05T03:34:19.710Z,26.81
2018-06-05T03:36:50.743Z,26.81
2018-06-05T03:39:28.307Z,26.80
2018-06-05T03:41:59.322Z,26.84
2018-06-05T03:44:30.208Z,26.86
2018-06-05T03:47:00.866Z,26.80
2018-06-05T03:49:35.232Z,26.76
2018-06-05T03:52:06.128Z,26.90
2018-06-05T03:54:37.395Z,26.97
2018-06-05T03:57:08.937Z,27.01
2018-06-05T03:59:39.976Z,27.13
2018-06-05T04:02:12.429Z,27.11
2018-06-05T04:04:42.998Z,27.28
2018-06-05T04:07:14.497Z,27.52
2018-06-05T04:09:45.220Z,27.58
2018-06-05T04:12:15.775Z,27.81
2018-06-05T04:14:46.689Z,27.91
2018-06-05T04:17:17.881Z,27.89
2018-06-05T04:19:48.426Z,27.77
2018-06-05T04:22:19.910Z,28.05
2018-06-05T04:24:50.444Z,28.09
2018-06-05T04:27:24.146Z,28.18
2018-06-05T04:29:54.636Z,28.43
2018-06-05T04:32:25.264Z,28.85
2018-06-05T04:34:57.636Z,29.02
2018-06-05T04:37:30.064Z,29.23
2018-06-05T04:40:06.772Z,29.35
2018-06-05T04:42:37.381Z,29.49
2018-06-05T04:45:07.905Z,29.86
2018-06-05T04:47:38.942Z,29.60
2018-06-05T04:50:09.475Z,29.97
2018-06-05T04:52:40.565Z,30.12
2018-06-05T04:55:11.501Z,30.22
2018-06-05T04:57:42.940Z,30.35
2018-06-05T05:00:16.638Z,30.32
2018-06-05T05:02:47.147Z,30.42
2018-06-05T05:05:17.726Z,30.41
2018-06-05T05:07:48.218Z,30.30
2018-06-05T05:10:18.793Z,30.33
2018-06-05T05:12:49.291Z,30.36
2018-06-05T05:15:20.936Z,30.46
2018-06-05T05:17:52.327Z,30.51
2018-06-05T05:20:22.833Z,30.66
2018-06-05T05:22:54.446Z,30.76
2018-06-05T05:25:25.024Z,30.97
2018-06-05T05:27:57.221Z,31.15
2018-06-05T05:30:32.816Z,31.23
2018-06-05T05:33:03.434Z,31.30
2018-06-05T05:35:34.355Z,31.27
2018-06-05T05:38:07.149Z,31.37
2018-06-05T05:40:38.294Z,31.55
2018-06-05T05:43:11.584Z,31.49
2018-06-05T05:45:43.463Z,31.47
2018-06-05T05:48:14.345Z,31.58
2018-06-05T05:50:44.970Z,31.63
2018-06-05T05:53:16.693Z,31.92
2018-06-05T05:55:47.299Z,32.05
2018-06-05T05:58:17.950Z,32.18
2018-06-05T06:00:49.271Z,32.41
2018-06-05T06:03:22.108Z,32.66
2018-06-05T06:05:53.243Z,32.74
2018-06-05T06:08:25.544Z,32.76
2018-06-05T06:10:57.618Z,33.16
2018-06-05T06:13:29.000Z,33.60
2018-06-05T06:15:59.562Z,33.95
2018-06-05T06:18:30.192Z,33.91
2018-06-05T06:21:01.492Z,33.56
2018-06-05T06:23:34.437Z,33.26
2018-06-05T06:26:04.989Z,33.47
2018-06-05T06:28:36.128Z,33.38
2018-06-05T06:31:06.830Z,33.53
2018-06-05T06:33:37.461Z,33.56
2018-06-05T06:36:09.065Z,33.14
2018-06-05T06:38:39.696Z,33.02
2018-06-05T06:41:10.291Z,33.15
2018-06-05T06:43:40.744Z,33.34
2018-06-05T06:46:11.449Z,33.49
2018-06-05T06:48:42.498Z,33.82
2018-06-05T06:51:13.387Z,34.00
2018-06-05T06:53:44.158Z,34.13
2018-06-05T06:56:16.224Z,34.21
2018-06-05T06:58:46.920Z,34.45
2018-06-05T07:01:24.146Z,34.41
2018-06-05T07:03:55.616Z,34.21
2018-06-05T07:06:26.494Z,34.55
2018-06-05T07:09:00.964Z,34.57
2018-06-05T07:11:32.302Z,34.43
2018-06-05T07:14:04.949Z,34.64
2018-06-05T07:16:38.314Z,35.01
2018-06-05T07:19:10.365Z,35.51
2018-06-05T07:21:43.348Z,35.48
2018-06-05T07:24:14.687Z,35.22
2018-06-05T07:26:45.359Z,35.17
2018-06-05T07:29:19.777Z,35.18
2018-06-05T07:31:50.382Z,35.31
2018-06-05T07:34:22.292Z,35.28
2018-06-05T07:36:52.945Z,35.35
2018-06-05T07:39:24.419Z,35.31
2018-06-05T07:41:55.551Z,35.44
2018-06-05T07:44:26.846Z,35.35
2018-06-05T07:46:57.699Z,35.11
2018-06-05T07:49:29.702Z,34.79
2018-06-05T07:52:00.593Z,34.78
2018-06-05T07:54:31.396Z,34.91
2018-06-05T07:57:02.142Z,34.71
2018-06-05T07:59:33.687Z,34.92
2018-06-05T08:02:04.905Z,35.37
2018-06-05T08:04:36.066Z,35.76
2018-06-05T08:07:07.334Z,35.82
2018-06-05T08:09:38.476Z,36.14
2018-06-05T08:12:10.212Z,36.11
2018-06-05T08:14:42.452Z,35.97
2018-06-05T08:17:14.246Z,36.17
2018-06-05T08:19:45.487Z,36.54
2018-06-05T08:22:17.066Z,36.44
2018-06-05T08:24:49.576Z,36.46
2018-06-05T08:27:20.034Z,36.89
2018-06-05T08:29:51.807Z,36.50
2018-06-05T08:32:25.295Z,36.36
2018-06-05T08:34:57.945Z,36.24
2018-06-05T08:37:31.565Z,36.42
2018-06-05T08:40:03.560Z,36.61
2018-06-05T08:42:34.690Z,36.95
2018-06-05T08:45:06.403Z,37.02
2018-06-05T08:47:38.170Z,36.94
2018-06-05T08:50:09.132Z,36.56
2018-06-05T08:52:39.733Z,36.20
2018-06-05T08:55:10.354Z,36.36
2018-06-05T08:57:42.206Z,36.61
2018-06-05T09:00:14.691Z,36.46
2018-06-05T09:02:46.939Z,36.37
2018-06-05T09:05:18.743Z,36.24
2018-06-05T09:07:50.272Z,36.13
2018-06-05T09:10:22.951Z,35.94
2018-06-05T09:12:54.219Z,36.21
2018-06-05T09:15:29.511Z,36.68
2018-06-05T09:18:01.880Z,36.30
2018-06-05T09:20:33.743Z,36.46
2018-06-05T09:23:04.165Z,36.73
2018-06-05T09:25:34.876Z,36.71
2018-06-05T09:28:06.765Z,36.78
2018-06-05T09:30:37.278Z,37.20
2018-06-05T09:33:07.738Z,37.11
2018-06-05T09:35:39.260Z,37.00
2018-06-05T09:38:10.587Z,36.95
2018-06-05T09:40:42.372Z,36.93
2018-06-05T09:43:13.688Z,37.00
2018-06-05T09:45:44.922Z,37.27
2018-06-05T09:48:18.308Z,37.58
2018-06-05T09:50:51.264Z,37.35
2018-06-05T09:53:23.871Z,37.66
2018-06-05T09:55:57.239Z,37.57
2018-06-05T09:58:29.226Z,37.18
2018-06-05T10:01:00.316Z,37.14
2018-06-05T10:03:32.376Z,37.46
2018-06-05T10:06:03.191Z,37.74
2018-06-05T10:08:34.764Z,37.77
2018-06-05T10:11:05.274Z,37.81
2018-06-05T10:13:36.404Z,37.84
2018-06-05T10:16:08.226Z,37.41
2018-06-05T10:18:39.636Z,36.89
2018-06-05T10:21:10.928Z,37.06
2018-06-05T10:23:43.674Z,37.19
2018-06-05T10:26:14.485Z,37.25
2018-06-05T10:28:45.829Z,37.32
2018-06-05T10:31:17.664Z,37.50
2018-06-05T10:33:48.200Z,37.63
2018-06-05T10:36:19.661Z,37.83
2018-06-05T10:38:50.805Z,38.12
2018-06-05T10:41:21.812Z,38.54
2018-06-05T10:43:53.038Z,38.36
2018-06-05T10:46:24.435Z,38.35
2018-06-05T10:48:56.068Z,38.42
2018-06-05T10:51:28.504Z,38.51
2018-06-05T10:53:59.970Z,38.36
2018-06-05T10:56:34.686Z,38.37
2018-06-05T10:59:07.470Z,38.45
2018-06-05T11:01:40.401Z,38.28
2018-06-05T11:04:14.808Z,38.45
2018-06-05T11:06:45.626Z,38.62
2018-06-05T11:09:18.358Z,38.84
2018-06-05T11:11:51.444Z,38.99
2018-06-05T11:14:26.681Z,38.80
2018-06-05T11:16:59.075Z,38.75
2018-06-05T11:19:31.373Z,38.56
2018-06-05T11:22:04.544Z,38.61
2018-06-05T11:24:36.646Z,39.02
2018-06-05T11:27:08.328Z,38.84
2018-06-05T11:29:39.643Z,38.86
2018-06-05T11:32:12.434Z,38.86
2018-06-05T11:34:42.935Z,38.92
2018-06-05T11:37:13.535Z,38.64
2018-06-05T11:39:49.557Z,38.48
2018-06-05T11:42:21.839Z,38.54
2018-06-05T11:44:54.095Z,39.03
2018-06-05T11:47:25.317Z,39.19
2018-06-05T11:49:58.269Z,39.32
2018-06-05T11:52:33.314Z,39.57
2018-06-05T11:55:05.516Z,39.43
2018-06-05T11:57:35.943Z,39.65
2018-06-05T12:00:18.224Z,39.56
2018-06-05T12:02:50.720Z,39.45
2018-06-05T12:05:21.444Z,39.35
2018-06-05T12:07:53.608Z,39.31
2018-06-05T12:10:25.765Z,39.10
2018-06-05T12:12:56.276Z,39.23
2018-06-05T12:15:31.815Z,39.49
2018-06-05T12:18:05.021Z,39.50
2018-06-05T12:20:36.191Z,39.59
2018-06-05T12:23:09.365Z,39.54
2018-06-05T12:25:42.482Z,39.52
2018-06-05T12:28:15.958Z,39.40
2018-06-05T12:30:50.978Z,39.42
2018-06-05T12:33:25.820Z,39.49
2018-06-05T12:36:00.229Z,39.40
2018-06-05T12:38:34.542Z,39.69
2018-06-05T12:41:08.823Z,39.56
2018-06-05T12:43:42.516Z,39.66
2018-06-05T12:46:16.299Z,39.70
2018-06-05T12:49:56.365Z,39.53
2018-06-05T12:52:31.013Z,39.24
2018-06-05T12:55:03.800Z,39.36
2018-06-05T12:57:36.932Z,39.15
2018-06-05T13:00:08.441Z,39.30
2018-06-05T13:02:44.705Z,39.41
2018-06-05T13:05:16.095Z,39.22
2018-06-05T13:07:49.551Z,39.08
2018-06-05T13:10:22.434Z,39.32
2018-06-05T13:12:53.925Z,39.63
2018-06-05T13:15:26.608Z,39.59
2018-06-05T13:17:58.552Z,39.57
2018-06-05T13:20:30.512Z,39.64
2018-06-05T13:23:02.604Z,39.78
2018-06-05T13:25:35.314Z,39.88
2018-06-05T13:28:07.543Z,40.09
2018-06-05T13:30:40.274Z,40.27
2018-06-05T13:33:12.638Z,40.18
2018-06-05T13:35:44.829Z,40.38
2018-06-05T13:38:20.252Z,40.30
2018-06-05T13:40:52.509Z,40.29
2018-06-05T13:43:27.665Z,40.12
2018-06-05T13:46:00.564Z,39.75
2018-06-05T13:48:34.374Z,39.90
2018-06-05T13:51:08.541Z,40.17
2018-06-05T13:53:42.019Z,40.30
2018-06-05T13:56:17.735Z,40.60
2018-06-05T13:58:52.119Z,40.59
2018-06-05T14:01:23.437Z,40.48
2018-06-05T14:03:57.768Z,40.28
2018-06-05T14:06:30.784Z,40.41
2018-06-05T14:09:04.644Z,40.18
2018-06-05T14:11:37.413Z,40.00
2018-06-05T14:14:13.834Z,40.01
2018-06-05T14:16:45.219Z,40.34
2018-06-05T14:19:17.389Z,40.22
2018-06-05T14:21:52.365Z,40.13
2018-06-05T14:24:24.960Z,40.21
2018-06-05T14:26:56.388Z,40.20
2018-06-05T14:29:28.591Z,40.02
2018-06-05T14:32:02.648Z,39.93
2018-06-05T14:34:35.608Z,40.12
2018-06-05T14:37:10.061Z,40.28
2018-06-05T14:39:42.976Z,40.01
2018-06-05T14:42:14.363Z,39.88
2018-06-05T14:44:48.575Z,39.67
2018-06-05T14:47:20.280Z,39.89
2018-06-05T14:49:51.770Z,40.16
2018-06-05T14:52:27.213Z,40.07
2018-06-05T14:54:58.648Z,40.32
2018-06-05T14:57:32.041Z,40.14
2018-06-05T15:00:08.477Z,40.10
2018-06-05T15:02:43.659Z,40.11
2018-06-05T15:05:17.660Z,40.32
2018-06-05T15:07:50.861Z,40.04
2018-06-05T15:10:22.535Z,39.87
2018-06-05T15:12:55.886Z,39.94
2018-06-05T15:15:28.187Z,40.06
2018-06-05T15:18:00.140Z,39.97
2018-06-05T15:20:33.395Z,40.01
2018-06-05T15:23:07.875Z,40.08
2018-06-05T15:25:43.324Z,40.10
2018-06-05T15:28:14.762Z,40.23
2018-06-05T15:30:46.562Z,40.22
2018-06-05T15:33:20.046Z,40.24
2018-06-05T15:35:52.754Z,40.07
2018-06-05T15:38:24.363Z,40.02
2018-06-05T15:40:57.570Z,40.04
2018-06-05T15:43:32.352Z,40.04
2018-06-05T15:46:07.241Z,39.92
2018-06-05T15:48:39.421Z,39.97
2018-06-05T15:51:12.339Z,39.89
2018-06-05T15:53:45.704Z,39.90
2018-06-05T15:56:17.223Z,40.01
2018-06-05T15:58:50.773Z,40.42
2018-06-05T16:01:24.644Z,40.02
2018-06-05T16:03:58.022Z,39.92
2018-06-05T16:06:31.865Z,40.17
2018-06-05T16:09:06.554Z,40.02
2018-06-05T16:11:39.334Z,40.09
2018-06-05T16:14:14.503Z,40.09
2018-06-05T16:16:46.838Z,39.86
2018-06-05T16:19:21.629Z,39.87
2018-06-05T16:21:55.014Z,39.97
2018-06-05T16:24:27.720Z,39.90
2018-06-05T16:26:59.251Z,39.76
2018-06-05T16:29:30.784Z,39.80
2018-06-05T16:32:04.424Z,39.72
2018-06-05T16:34:36.786Z,39.71
2018-06-05T16:37:09.854Z,39.65
2018-06-05T16:39:46.486Z,39.80
2018-06-05T16:42:19.448Z,39.68
2018-06-05T16:44:55.037Z,39.66
2018-06-05T16:47:28.560Z,39.45
2018-06-05T16:50:02.697Z,39.30
2018-06-05T16:52:38.041Z,39.35
2018-06-05T16:55:14.401Z,39.50
2018-06-05T16:57:48.863Z,39.58
2018-06-05T17:00:22.638Z,39.35
2018-06-05T17:02:56.002Z,39.45
2018-06-05T17:05:30.485Z,39.56
2018-06-05T17:08:04.667Z,39.71
2018-06-05T17:10:39.484Z,39.58
2018-06-05T17:13:14.805Z,39.51
2018-06-05T17:15:47.743Z,39.24
2018-06-05T17:18:19.942Z,38.95
2018-06-05T17:20:52.778Z,39.11
2018-06-05T17:23:25.085Z,38.98
2018-06-05T17:25:59.688Z,38.95
2018-06-05T17:28:33.980Z,38.83
2018-06-05T17:31:10.199Z,38.74
2018-06-05T17:36:35.698Z,38.36
2018-06-05T17:39:10.499Z,38.04
2018-06-05T17:44:32.467Z,37.63
2018-06-05T17:47:09.079Z,37.40
2018-06-05T17:49:44.331Z,37.25
2018-06-05T17:52:18.441Z,37.06
2018-06-05T17:54:53.033Z,36.91
2018-06-05T17:57:30.813Z,36.68
2018-06-05T18:00:05.955Z,36.68
2018-06-05T18:02:38.375Z,36.25
2018-06-05T18:05:12.246Z,35.76
2018-06-05T18:07:49.526Z,35.29
2018-06-05T18:10:24.429Z,34.75
2018-06-05T18:12:57.352Z,34.34
2018-06-05T18:15:33.450Z,34.09
2018-06-05T18:18:06.520Z,34.01
2018-06-05T18:20:43.296Z,33.73
2018-06-05T18:23:16.436Z,33.53
2018-06-05T18:25:49.908Z,33.29
2018-06-05T18:28:23.650Z,33.16
2018-06-05T18:30:55.033Z,33.02
2018-06-05T18:33:42.656Z,32.87
2018-06-05T18:36:17.202Z,32.93
2018-06-05T18:38:54.126Z,32.80
2018-06-05T18:41:27.853Z,32.65
2018-06-05T18:43:58.563Z,32.53
2018-06-05T18:46:29.905Z,32.42
2018-06-05T18:49:02.852Z,32.35
2018-06-05T18:51:40.592Z,32.27
2018-06-05T18:54:13.946Z,32.22
2018-06-05T18:56:45.483Z,32.13
2018-06-05T18:59:16.228Z,32.13
2018-06-05T19:01:52.478Z,31.98
2018-06-05T19:04:25.855Z,31.94
2018-06-05T19:07:01.194Z,31.70
2018-06-05T19:09:32.197Z,31.66
2018-06-05T19:12:04.351Z,31.68
2018-06-05T19:14:37.040Z,31.59
2018-06-05T19:17:10.434Z,31.42
2018-06-05T19:19:42.588Z,31.45
2018-06-05T19:22:16.865Z,31.23
2018-06-05T19:24:48.462Z,31.25
2018-06-05T19:27:22.535Z,31.18
2018-06-05T19:29:56.892Z,31.11
2018-06-05T19:32:29.986Z,31.03
2018-06-05T19:35:03.855Z,30.80
2018-06-05T19:37:38.149Z,30.81
2018-06-05T19:40:16.230Z,30.82
2018-06-05T19:42:55.151Z,30.74
2018-06-05T19:45:33.034Z,30.63
2018-06-05T19:48:05.207Z,30.49
2018-06-05T19:50:49.348Z,30.46
2018-06-05T19:53:25.294Z,30.27
2018-06-05T19:55:57.360Z,30.25
2018-06-05T19:58:33.782Z,30.24
2018-06-05T20:01:06.646Z,30.11
2018-06-05T20:03:40.363Z,30.03
2018-06-05T20:06:11.806Z,29.88
2018-06-05T20:08:42.839Z,29.14
2018-06-05T20:11:13.443Z,29.70
2018-06-05T20:13:44.431Z,29.64
2018-06-05T20:16:16.189Z,29.51
2018-06-05T20:18:48.953Z,29.47
2018-06-05T20:21:24.696Z,29.37
2018-06-05T20:23:59.745Z,29.30
2018-06-05T20:26:35.223Z,29.21
2018-06-05T20:29:10.557Z,29.20
2018-06-05T20:31:41.618Z,29.12
2018-06-05T20:34:13.191Z,29.05
2018-06-05T20:36:44.628Z,28.94
2018-06-05T20:39:15.776Z,28.91
2018-06-05T20:42:00.004Z,28.89
2018-06-05T20:44:37.761Z,28.80
2018-06-05T20:47:09.408Z,28.75
2018-06-05T20:49:39.988Z,28.71
2018-06-05T20:52:16.062Z,28.70
2018-06-05T20:54:51.638Z,28.75
2018-06-05T20:57:25.669Z,28.64
2018-06-05T20:59:56.286Z,28.66
2018-06-05T21:02:29.476Z,28.65
2018-06-05T21:05:02.363Z,28.59
2018-06-05T21:07:34.807Z,28.53
2018-06-05T21:10:07.333Z,28.50
2018-06-05T21:12:45.336Z,28.43
2018-06-05T21:15:17.643Z,28.28
2018-06-05T21:17:50.742Z,28.25
2018-06-05T21:20:21.279Z,28.20
2018-06-05T21:25:40.520Z,28.12
2018-06-05T21:28:11.017Z,28.09
2018-06-05T21:30:44.111Z,28.02
2018-06-05T21:33:16.196Z,28.04
2018-06-05T21:35:47.625Z,27.94
2018-06-05T21:38:18.175Z,27.91
2018-06-05T21:40:56.365Z,27.97
2018-06-05T21:43:35.598Z,27.89
2018-06-05T21:46:07.269Z,27.83
2018-06-05T21:48:38.821Z,27.84
2018-06-05T21:51:10.163Z,27.82
2018-06-05T21:53:42.348Z,27.84
2018-06-05T21:56:12.897Z,27.87
2018-06-05T21:58:44.292Z,27.86
2018-06-05T22:01:15.143Z,27.85
2018-06-05T22:03:45.369Z,27.86
2018-06-05T22:06:17.050Z,27.80
2018-06-05T22:08:49.862Z,27.83
2018-06-05T22:11:20.293Z,27.80
2018-06-05T22:13:56.641Z,27.78
2018-06-05T22:16:27.952Z,27.85
2018-06-05T22:19:03.556Z,27.81
2018-06-05T22:21:36.653Z,27.83
2018-06-05T22:24:08.655Z,27.79
2018-06-05T22:26:41.059Z,27.84
2018-06-05T22:29:11.554Z,27.85
2018-06-05T22:31:43.388Z,27.78
2018-06-05T22:36:52.632Z,27.77
2018-06-05T22:39:25.091Z,27.76
2018-06-05T22:41:58.898Z,27.72
2018-06-05T22:44:31.149Z,27.70
2018-06-05T22:47:01.810Z,27.65
2018-06-05T22:49:33.235Z,27.66
2018-06-05T22:52:03.971Z,27.65
2018-06-05T22:54:36.787Z,27.57
2018-06-05T22:57:07.998Z,27.68
2018-06-05T22:59:39.809Z,27.55
2018-06-05T23:02:11.530Z,27.63
2018-06-05T23:04:44.271Z,27.18
2018-06-05T23:07:14.779Z,27.45
2018-06-05T23:09:45.276Z,27.46
2018-06-05T23:12:19.230Z,27.44
2018-06-05T23:14:52.820Z,27.33
2018-06-05T23:17:23.736Z,27.28
2018-06-05T23:19:54.224Z,27.20
2018-06-05T23:22:24.715Z,27.28
2018-06-05T23:24:56.355Z,27.29
2018-06-05T23:27:28.678Z,27.29
2018-06-05T23:29:59.347Z,27.25
2018-06-05T23:32:30.052Z,27.17
2018-06-05T23:35:01.531Z,27.09
2018-06-05T23:37:32.440Z,27.00
2018-06-05T23:40:03.209Z,27.05
2018-06-05T23:42:35.651Z,27.02
2018-06-05T23:45:06.551Z,27.06
2018-06-05T23:47:37.139Z,27.06
2018-06-05T23:50:08.178Z,27.03
2018-06-05T23:52:39.431Z,26.98
2018-06-05T23:55:09.995Z,26.95
2018-06-05T23:57:40.637Z,26.83
